createdAt,value
2022-09-20T00:00:46.588Z,75733.09
2022-09-20T00:03:13.874Z,75745.44
2022-09-20T00:05:41.652Z,75747.50
2022-09-20T00:08:10.847Z,75743.38
2022-09-20T00:10:39.372Z,75749.56
2022-09-20T00:13:06.835Z,75761.88
2022-09-20T00:15:34.317Z,75749.56
2022-09-20T00:18:01.374Z,75753.66
2022-09-20T00:20:28.544Z,75770.09
2022-09-20T00:22:55.692Z,75774.22
2022-09-20T00:25:22.797Z,75774.22
2022-09-20T00:27:50.474Z,75778.31
2022-09-20T00:30:17.636Z,75782.44
2022-09-20T00:32:44.857Z,75798.88
2022-09-20T00:35:12.109Z,75786.53
2022-09-20T00:37:42.326Z,75778.31
2022-09-20T00:40:10.701Z,75774.22
2022-09-20T00:42:37.887Z,75786.53
2022-09-20T00:45:13.057Z,75794.75
2022-09-20T00:47:41.707Z,75794.75
2022-09-20T00:50:14.067Z,75788.59
2022-09-20T00:52:43.873Z,75790.66
2022-09-20T00:55:10.901Z,75786.53
2022-09-20T00:57:38.742Z,75790.66
2022-09-20T01:00:09.385Z,75798.88
2022-09-20T01:02:37.862Z,75811.22
2022-09-20T01:05:05.266Z,75811.22
2022-09-20T01:07:34.326Z,75815.31
2022-09-20T01:10:01.608Z,75811.22
2022-09-20T01:12:34.352Z,75839.97
2022-09-20T01:15:02.762Z,75839.97
2022-09-20T01:17:30.414Z,75833.81
2022-09-20T01:20:09.936Z,75827.66
2022-09-20T01:22:48.997Z,75819.44
2022-09-20T01:25:27.459Z,75815.31
2022-09-20T01:27:54.509Z,75817.38
2022-09-20T01:30:22.462Z,75815.31
2022-09-20T01:32:49.574Z,75823.53
2022-09-20T01:35:17.146Z,75831.75
2022-09-20T01:37:54.493Z,75835.88
2022-09-20T01:40:32.998Z,75827.66
2022-09-20T01:43:07.334Z,75839.97
2022-09-20T01:45:34.734Z,75844.09
2022-09-20T01:48:19.279Z,75839.97
2022-09-20T01:51:06.550Z,75831.75
2022-09-20T01:53:55.978Z,75827.66
2022-09-20T01:56:28.934Z,75827.66
2022-09-20T01:59:30.467Z,75827.66
2022-09-20T02:02:00.820Z,75827.66
2022-09-20T02:04:28.001Z,75823.53
2022-09-20T02:07:13.877Z,75809.16
2022-09-20T02:09:44.289Z,75802.97
2022-09-20T02:12:20.678Z,75807.09
2022-09-20T02:15:14.030Z,75805.03
2022-09-20T02:17:59.512Z,75807.09
2022-09-20T02:20:32.428Z,75798.88
2022-09-20T02:23:11.728Z,75790.66
2022-09-20T02:25:43.513Z,75778.31
2022-09-20T02:28:25.858Z,75766.00
2022-09-20T02:30:52.893Z,75774.22
2022-09-20T02:33:26.090Z,75766.00
2022-09-20T02:36:05.165Z,75753.66
2022-09-20T02:38:51.149Z,75757.78
2022-09-20T02:41:31.151Z,75749.56
2022-09-20T02:44:01.826Z,75747.50
2022-09-20T02:46:28.987Z,75741.31
2022-09-20T02:48:58.031Z,75739.28
2022-09-20T02:51:41.442Z,75749.56
2022-09-20T02:54:27.047Z,75747.50
2022-09-20T02:56:56.930Z,75741.31
2022-09-20T02:59:30.011Z,75729.00
2022-09-20T03:02:15.533Z,75726.94
2022-09-20T03:04:53.559Z,75726.94
2022-09-20T03:07:39.579Z,75718.72
2022-09-20T03:10:06.559Z,75729.00
2022-09-20T03:12:43.342Z,75729.00
2022-09-20T03:15:14.220Z,75720.78
2022-09-20T03:17:49.049Z,75716.66
2022-09-20T03:20:34.547Z,75716.66
2022-09-20T03:23:01.902Z,75741.31
2022-09-20T03:25:39.579Z,75739.28
2022-09-20T03:28:09.767Z,75737.22
2022-09-20T03:30:37.006Z,75745.44
2022-09-20T03:33:16.926Z,75737.22
2022-09-20T03:35:50.478Z,75741.31
2022-09-20T03:38:20.792Z,75733.09
2022-09-20T03:40:47.860Z,75737.22
2022-09-20T03:43:17.968Z,75735.16
2022-09-20T03:45:54.557Z,75741.31
2022-09-20T03:48:29.648Z,75716.66
2022-09-20T03:50:56.675Z,75712.56
2022-09-20T03:53:43.180Z,75714.59
2022-09-20T03:56:10.697Z,75696.13
2022-09-20T03:58:44.511Z,75692.00
2022-09-20T04:01:30.308Z,75708.44
2022-09-20T04:04:03.243Z,75692.00
2022-09-20T04:06:48.958Z,75683.78
2022-09-20T04:09:29.654Z,75679.69
2022-09-20T04:11:59.905Z,75677.63
2022-09-20T04:14:30.321Z,75671.44
2022-09-20T04:17:01.168Z,75675.56
2022-09-20T04:19:33.254Z,75671.44
2022-09-20T04:22:00.789Z,75677.63
2022-09-20T04:24:46.698Z,75679.69
2022-09-20T04:27:13.734Z,75669.41
2022-09-20T04:29:40.851Z,75681.72
2022-09-20T04:32:26.969Z,75687.91
2022-09-20T04:35:18.749Z,75683.78
2022-09-20T04:37:45.943Z,75708.44
2022-09-20T04:40:14.983Z,75704.34
2022-09-20T04:43:00.561Z,75729.00
2022-09-20T04:45:37.304Z,75751.59
2022-09-20T04:48:10.299Z,75766.00
2022-09-20T04:50:37.941Z,75772.16
2022-09-20T04:53:10.724Z,75794.75
2022-09-20T04:55:41.191Z,75782.44
2022-09-20T04:58:27.131Z,75786.53
2022-09-20T05:01:19.682Z,75790.66
2022-09-20T05:03:46.996Z,75800.94
2022-09-20T05:06:20.277Z,75794.75
2022-09-20T05:08:51.178Z,75809.16
2022-09-20T05:11:39.132Z,75792.72
2022-09-20T05:14:06.284Z,75786.53
2022-09-20T05:16:50.273Z,75794.75
2022-09-20T05:19:43.674Z,75794.75
2022-09-20T05:22:25.848Z,75782.44
2022-09-20T05:25:11.455Z,75768.03
2022-09-20T05:27:43.435Z,75794.75
2022-09-20T05:30:10.454Z,75782.44
2022-09-20T05:32:45.427Z,75772.16
2022-09-20T05:35:15.361Z,75766.00
2022-09-20T05:38:00.283Z,75761.88
2022-09-20T05:40:30.450Z,75766.00
2022-09-20T05:43:03.532Z,75757.78
2022-09-20T05:45:49.661Z,75749.56
2022-09-20T05:48:19.771Z,75749.56
2022-09-20T05:51:03.856Z,75745.44
2022-09-20T05:53:31.372Z,75724.88
2022-09-20T05:56:19.120Z,75714.59
2022-09-20T05:59:04.452Z,75712.56
2022-09-20T06:01:38.073Z,75683.78
2022-09-20T06:04:05.794Z,75679.69
2022-09-20T06:06:51.660Z,75683.78
2022-09-20T06:09:22.338Z,75729.00
2022-09-20T06:11:50.349Z,75757.78
2022-09-20T06:14:22.131Z,75751.59
2022-09-20T06:17:22.146Z,75757.78
2022-09-20T06:20:21.585Z,75757.78
2022-09-20T06:22:49.825Z,75731.06
2022-09-20T06:25:19.496Z,75704.34
2022-09-20T06:27:53.960Z,75698.16
2022-09-20T06:30:22.819Z,75679.69
2022-09-20T06:33:13.208Z,75650.91
2022-09-20T06:35:41.767Z,75626.25
2022-09-20T06:38:46.842Z,75628.28
2022-09-20T06:41:29.838Z,75601.56
2022-09-20T06:43:58.650Z,75634.47
2022-09-20T06:46:29.468Z,75655.00
2022-09-20T06:48:56.835Z,75655.00
2022-09-20T06:51:24.575Z,75677.63
2022-09-20T06:53:51.941Z,75673.50
2022-09-20T06:56:19.891Z,75685.84
2022-09-20T06:58:48.074Z,75694.06
2022-09-20T07:01:22.973Z,75708.44
2022-09-20T07:03:56.255Z,75720.78
2022-09-20T07:06:23.423Z,75696.13
2022-09-20T07:08:50.428Z,75655.00
2022-09-20T07:11:17.914Z,75601.56
2022-09-20T07:13:45.227Z,75607.75
2022-09-20T07:16:13.676Z,75593.34
2022-09-20T07:18:41.486Z,75564.59
2022-09-20T07:21:12.353Z,75539.94
2022-09-20T07:23:39.388Z,75509.09
2022-09-20T07:26:06.620Z,75470.06
2022-09-20T07:28:34.133Z,75453.63
2022-09-20T07:31:01.229Z,75474.16
2022-09-20T07:33:28.407Z,75431.00
2022-09-20T07:35:55.748Z,75412.53
2022-09-20T07:38:22.892Z,75408.41
2022-09-20T07:40:56.895Z,75396.06
2022-09-20T07:43:24.470Z,75363.19
2022-09-20T07:45:54.525Z,75342.66
2022-09-20T07:48:25.896Z,75334.44
2022-09-20T07:50:57.274Z,75352.91
2022-09-20T07:53:24.279Z,75334.44
2022-09-20T07:55:58.410Z,75309.78
2022-09-20T07:58:25.588Z,75326.22
2022-09-20T08:00:54.241Z,75338.53
2022-09-20T08:03:21.643Z,75318.00
2022-09-20T08:05:52.291Z,75322.09
2022-09-20T08:08:19.471Z,75264.56
2022-09-20T08:10:46.675Z,75157.72
2022-09-20T08:16:04.721Z,74734.44
2022-09-20T08:18:32.437Z,74730.34
2022-09-20T08:21:06.308Z,74642.00
2022-09-20T08:23:43.069Z,74584.47
2022-09-20T08:26:13.561Z,74467.34
2022-09-20T08:28:40.957Z,74385.19
2022-09-20T08:31:09.062Z,74467.34
2022-09-20T08:33:37.986Z,74397.50
2022-09-20T08:36:06.041Z,74362.59
2022-09-20T08:41:21.691Z,74557.75
2022-09-20T08:43:52.083Z,74701.56
2022-09-20T08:46:23.318Z,74722.13
2022-09-20T08:48:52.182Z,74483.78
2022-09-20T08:51:23.161Z,74401.63
2022-09-20T08:53:51.383Z,74518.72
2022-09-20T08:56:19.062Z,74619.38
2022-09-20T08:58:46.473Z,74524.88
2022-09-20T09:01:14.646Z,74475.56
2022-09-20T09:03:41.914Z,74459.16
2022-09-20T09:06:14.167Z,74446.81
2022-09-20T09:08:44.695Z,74623.50
2022-09-20T09:11:15.793Z,74734.44
2022-09-20T09:13:44.929Z,74808.41
2022-09-20T09:16:13.300Z,74771.44
2022-09-20T09:18:41.413Z,74734.44
2022-09-20T09:21:10.489Z,74722.13
2022-09-20T09:23:41.586Z,74648.16
2022-09-20T09:26:22.117Z,74578.31
2022-09-20T09:29:30.653Z,74531.03
2022-09-20T09:32:16.744Z,74646.09
2022-09-20T09:34:43.821Z,74705.69
2022-09-20T09:37:29.079Z,74709.78
2022-09-20T09:40:26.242Z,74763.22
2022-09-20T09:42:57.048Z,74845.38
2022-09-20T09:45:38.601Z,74923.47
2022-09-20T09:48:18.128Z,74911.13
2022-09-20T09:50:45.178Z,74896.75
2022-09-20T09:53:13.099Z,74890.59
2022-09-20T09:56:00.428Z,74872.09
2022-09-20T09:58:46.353Z,74824.84
2022-09-20T10:01:20.146Z,74744.72
2022-09-20T10:03:50.459Z,74742.66
2022-09-20T10:06:22.945Z,74794.03
2022-09-20T10:09:08.811Z,74874.16
2022-09-20T10:11:48.075Z,74900.88
2022-09-20T10:14:44.842Z,74919.34
2022-09-20T10:17:18.023Z,74937.84
2022-09-20T10:19:45.133Z,74944.00
2022-09-20T10:22:24.708Z,74960.44
2022-09-20T10:25:12.055Z,74966.63
2022-09-20T10:27:57.733Z,74956.34
2022-09-20T10:30:25.834Z,74960.44
2022-09-20T10:32:54.034Z,74931.69
2022-09-20T10:35:21.348Z,74898.81
2022-09-20T10:38:00.871Z,74878.25
2022-09-20T10:40:51.018Z,74870.03
2022-09-20T10:43:28.112Z,74907.03
2022-09-20T10:46:31.843Z,74952.22
2022-09-20T10:49:03.477Z,75007.72
2022-09-20T10:51:49.377Z,74981.00
2022-09-20T10:54:29.201Z,74960.44
2022-09-20T10:57:03.541Z,74987.16
2022-09-20T10:59:33.791Z,74976.88
2022-09-20T11:02:01.415Z,74989.22
2022-09-20T11:04:37.501Z,74985.09
2022-09-20T11:07:07.435Z,74978.94
2022-09-20T11:09:36.210Z,74997.44
2022-09-20T11:12:10.348Z,74981.00
2022-09-20T11:14:41.428Z,74985.09
2022-09-20T11:17:12.788Z,75005.66
2022-09-20T11:19:57.595Z,75042.66
2022-09-20T11:22:30.297Z,75083.75
2022-09-20T11:24:58.912Z,75096.06
2022-09-20T11:27:33.011Z,75141.28
2022-09-20T11:30:04.565Z,75120.72
2022-09-20T11:32:44.899Z,75059.06
2022-09-20T11:35:11.913Z,75013.88
2022-09-20T11:37:40.067Z,74981.00
2022-09-20T11:40:20.721Z,74974.84
2022-09-20T11:42:48.156Z,74923.47
2022-09-20T11:45:17.341Z,74870.03
2022-09-20T11:47:55.332Z,74861.81
2022-09-20T11:50:33.085Z,74857.72
2022-09-20T11:53:15.229Z,74800.19
2022-09-20T11:55:45.137Z,74851.56
2022-09-20T11:58:12.633Z,74783.75
2022-09-20T12:00:41.478Z,74722.13
2022-09-20T12:03:21.454Z,74742.66
2022-09-20T12:05:48.558Z,74742.66
2022-09-20T12:08:22.024Z,74672.81
2022-09-20T12:10:56.601Z,74611.16
2022-09-20T12:13:25.144Z,74627.59
2022-09-20T12:16:09.217Z,74594.75
2022-09-20T12:18:54.930Z,74570.09
2022-09-20T12:21:22.028Z,74565.97
2022-09-20T12:23:55.168Z,74582.41
2022-09-20T12:26:22.495Z,74609.13
2022-09-20T12:28:50.229Z,74635.81
2022-09-20T12:31:29.630Z,74637.88
2022-09-20T12:34:12.194Z,74619.38
2022-09-20T12:36:40.237Z,74590.63
2022-09-20T12:39:11.074Z,74619.38
2022-09-20T12:41:51.612Z,74619.38
2022-09-20T12:44:31.303Z,74623.50
2022-09-20T12:46:59.752Z,74672.81
2022-09-20T12:50:05.863Z,74642.00
2022-09-20T12:52:56.318Z,74471.47
2022-09-20T12:55:45.508Z,74393.41
2022-09-20T12:58:15.318Z,74459.16
2022-09-20T13:00:42.779Z,74508.44
2022-09-20T13:03:16.797Z,74504.34
2022-09-20T13:05:47.506Z,74529.00
2022-09-20T13:08:20.303Z,74539.25
2022-09-20T13:11:00.761Z,74563.91
2022-09-20T13:13:29.051Z,74598.84
2022-09-20T13:15:56.151Z,74611.16
2022-09-20T13:18:25.102Z,74629.66
2022-09-20T13:20:52.238Z,74648.16
2022-09-20T13:23:20.437Z,74627.59
2022-09-20T13:25:47.647Z,74683.06
2022-09-20T13:28:34.430Z,74689.25
2022-09-20T13:31:20.353Z,74713.91
2022-09-20T13:33:50.385Z,74713.91
2022-09-20T13:36:20.036Z,74709.78
2022-09-20T13:38:49.462Z,74718.00
2022-09-20T13:41:16.599Z,74709.78
2022-09-20T13:43:44.416Z,74699.50
2022-09-20T13:46:18.662Z,74697.47
2022-09-20T13:48:49.120Z,74687.19
2022-09-20T13:51:26.581Z,74699.50
2022-09-20T13:53:54.044Z,74693.34
2022-09-20T13:56:21.534Z,74701.56
2022-09-20T13:58:48.943Z,74718.00
2022-09-20T14:01:33.132Z,74732.38
2022-09-20T14:04:13.978Z,74740.59
2022-09-20T14:06:41.034Z,74769.38
2022-09-20T14:09:10.983Z,74812.53
2022-09-20T14:11:39.113Z,74826.91
2022-09-20T14:14:06.291Z,74824.84
2022-09-20T14:16:46.957Z,74872.09
2022-09-20T14:19:15.568Z,74870.03
2022-09-20T14:21:43.756Z,74870.03
2022-09-20T14:24:24.900Z,74886.47
2022-09-20T14:27:10.925Z,74882.38
2022-09-20T14:29:39.955Z,74894.69
2022-09-20T14:32:30.250Z,74907.03
2022-09-20T14:35:00.317Z,74904.97
2022-09-20T14:37:53.427Z,74907.03
2022-09-20T14:40:21.002Z,74919.34
2022-09-20T14:42:52.394Z,74919.34
2022-09-20T14:45:35.342Z,74923.47
2022-09-20T14:48:10.732Z,74931.69
2022-09-20T14:50:38.023Z,74939.91
2022-09-20T14:53:10.958Z,74935.78
2022-09-20T14:55:38.631Z,74944.00
2022-09-20T14:58:14.632Z,74948.13
2022-09-20T15:00:48.184Z,74956.34
2022-09-20T15:03:16.012Z,74960.44
2022-09-20T15:05:43.226Z,74983.06
2022-09-20T15:08:11.150Z,74997.44
2022-09-20T15:10:38.207Z,74989.22
2022-09-20T15:13:05.922Z,74993.31
2022-09-20T15:15:33.661Z,75013.88
2022-09-20T15:18:00.900Z,75015.94
2022-09-20T15:20:27.926Z,75009.75
2022-09-20T15:22:56.413Z,75022.09
2022-09-20T15:25:23.613Z,75026.19
2022-09-20T15:27:53.684Z,75030.31
2022-09-20T15:30:21.115Z,75038.53
2022-09-20T15:32:49.197Z,75050.88
2022-09-20T15:35:16.288Z,75061.13
2022-09-20T15:37:44.082Z,75083.75
2022-09-20T15:40:11.274Z,75081.69
2022-09-20T15:42:38.372Z,75083.75
2022-09-20T15:45:06.889Z,75100.19
2022-09-20T15:47:34.024Z,75120.72
2022-09-20T15:50:01.414Z,75118.66
2022-09-20T15:52:34.424Z,75124.84
2022-09-20T15:55:03.690Z,75124.84
2022-09-20T15:57:31.649Z,75137.16
2022-09-20T16:00:01.641Z,75131.00
2022-09-20T16:02:29.321Z,75145.38
2022-09-20T16:04:56.518Z,75145.38
2022-09-20T16:07:27.348Z,75157.72
2022-09-20T16:09:54.899Z,75149.50
2022-09-20T16:12:25.043Z,75165.94
2022-09-20T16:14:53.436Z,75161.81
2022-09-20T16:17:40.414Z,75174.16
2022-09-20T16:20:07.911Z,75198.81
2022-09-20T16:22:35.156Z,75202.91
2022-09-20T16:25:03.930Z,75207.03
2022-09-20T16:27:34.174Z,75186.47
2022-09-20T16:30:02.537Z,75194.69
2022-09-20T16:32:29.803Z,75202.91
2022-09-20T16:34:58.562Z,75209.09
2022-09-20T16:37:26.583Z,75200.88
2022-09-20T16:39:53.891Z,75211.13
2022-09-20T16:42:21.035Z,75223.47
2022-09-20T16:44:48.068Z,75219.34
2022-09-20T16:47:22.084Z,75235.78
2022-09-20T16:49:50.277Z,75225.53
2022-09-20T16:52:17.838Z,75217.31
2022-09-20T16:54:45.638Z,75227.56
2022-09-20T16:57:15.323Z,75248.13
2022-09-20T16:59:42.901Z,75256.34
2022-09-20T17:02:11.092Z,75262.50
2022-09-20T17:04:38.702Z,75272.78
2022-09-20T17:07:06.105Z,75264.56
2022-09-20T17:09:33.202Z,75266.63
2022-09-20T17:12:01.259Z,75276.91
2022-09-20T17:14:28.523Z,75289.22
2022-09-20T17:16:56.698Z,75281.00
2022-09-20T17:19:23.880Z,75283.06
2022-09-20T17:21:51.246Z,75283.06
2022-09-20T17:24:19.309Z,75289.22
2022-09-20T17:26:46.439Z,75305.66
2022-09-20T17:29:15.220Z,75318.00
2022-09-20T17:31:44.015Z,75320.03
2022-09-20T17:34:12.024Z,75320.03
2022-09-20T17:36:40.747Z,75322.09
2022-09-20T17:39:10.862Z,75322.09
2022-09-20T17:41:42.208Z,75330.31
2022-09-20T17:44:10.083Z,75334.44
2022-09-20T17:46:38.386Z,75344.69
2022-09-20T17:49:07.496Z,75354.97
2022-09-20T17:51:38.912Z,75354.97
2022-09-20T17:54:06.126Z,75357.03
2022-09-20T17:56:33.468Z,75371.41
2022-09-20T17:59:01.524Z,75379.63
2022-09-20T18:01:29.097Z,75379.63
2022-09-20T18:03:57.584Z,75383.75
2022-09-20T18:06:31.814Z,75385.81
2022-09-20T18:09:03.012Z,75394.03
2022-09-20T18:11:33.955Z,75410.47
2022-09-20T18:14:01.777Z,75418.69
2022-09-20T18:16:30.848Z,75435.13
2022-09-20T18:18:59.854Z,75414.56
2022-09-20T18:21:27.375Z,75396.06
2022-09-20T18:23:55.412Z,75371.41
2022-09-20T18:26:23.415Z,75379.63
2022-09-20T18:28:51.610Z,75371.41
2022-09-20T18:31:19.100Z,75379.63
2022-09-20T18:33:46.320Z,75387.84
2022-09-20T18:36:18.367Z,75391.97
2022-09-20T18:38:45.773Z,75402.25
2022-09-20T18:41:14.500Z,75410.47
2022-09-20T18:43:44.508Z,75424.84
2022-09-20T18:46:12.263Z,75437.19
2022-09-20T18:48:40.234Z,75437.19
2022-09-20T18:51:07.724Z,75447.44
2022-09-20T18:53:35.755Z,75449.50
2022-09-20T18:56:09.392Z,75455.66
2022-09-20T18:58:36.717Z,75465.94
2022-09-20T19:01:22.747Z,75457.72
2022-09-20T19:04:25.377Z,75470.06
2022-09-20T19:07:15.788Z,75468.00
2022-09-20T19:10:01.641Z,75465.94
2022-09-20T19:12:39.457Z,75457.72
2022-09-20T19:15:22.722Z,75457.72
2022-09-20T19:17:54.288Z,75461.84
2022-09-20T19:20:40.143Z,75457.72
2022-09-20T19:23:07.298Z,75461.84
2022-09-20T19:25:40.840Z,75461.84
2022-09-20T19:28:09.126Z,75451.56
2022-09-20T19:30:36.384Z,75441.28
2022-09-20T19:33:03.518Z,75437.19
2022-09-20T19:35:32.453Z,75428.97
2022-09-20T19:38:15.502Z,75437.19
2022-09-20T19:40:46.468Z,75424.84
2022-09-20T19:43:23.659Z,75433.06
2022-09-20T19:46:00.290Z,75449.50
2022-09-20T19:48:40.406Z,75453.63
2022-09-20T19:51:11.282Z,75470.06
2022-09-20T19:53:39.541Z,75509.09
2022-09-20T19:56:12.677Z,75511.16
2022-09-20T19:58:46.580Z,75490.59
2022-09-20T20:01:13.728Z,75490.59
2022-09-20T20:03:40.898Z,75494.72
2022-09-20T20:06:12.323Z,75507.03
2022-09-20T20:08:39.429Z,75498.81
2022-09-20T20:11:21.683Z,75486.50
2022-09-20T20:14:07.965Z,75461.84
2022-09-20T20:16:36.062Z,75447.44
2022-09-20T20:19:12.881Z,75461.84
2022-09-20T20:21:48.837Z,75455.66
2022-09-20T20:24:25.900Z,75457.72
2022-09-20T20:26:52.965Z,75482.38
2022-09-20T20:29:20.279Z,75457.72
2022-09-20T20:31:47.341Z,75457.72
2022-09-20T20:34:16.372Z,75449.50
2022-09-20T20:36:43.984Z,75445.41
2022-09-20T20:39:11.377Z,75447.44
2022-09-20T20:41:39.299Z,75461.84
2022-09-20T20:44:06.714Z,75457.72
2022-09-20T20:46:35.834Z,75463.88
2022-09-20T20:49:03.499Z,75482.38
2022-09-20T20:51:33.118Z,75502.94
2022-09-20T20:54:00.234Z,75511.16
2022-09-20T20:56:28.738Z,75519.38
2022-09-20T20:59:00.520Z,75515.25
2022-09-20T21:01:28.961Z,75525.53
2022-09-20T21:03:57.139Z,75523.50
2022-09-20T21:06:25.229Z,75523.50
2022-09-20T21:08:52.640Z,75531.72
2022-09-20T21:11:23.542Z,75539.94
2022-09-20T21:13:51.210Z,75539.94
2022-09-20T21:16:18.970Z,75544.03
2022-09-20T21:18:47.254Z,75541.97
2022-09-20T21:21:21.532Z,75531.72
2022-09-20T21:23:50.664Z,75535.81
2022-09-20T21:26:18.395Z,75552.25
2022-09-20T21:28:46.202Z,75544.03
2022-09-20T21:31:13.353Z,75531.72
2022-09-20T21:33:44.064Z,75539.94
2022-09-20T21:36:12.911Z,75544.03
2022-09-20T21:38:40.376Z,75548.16
2022-09-20T21:41:20.059Z,75552.25
2022-09-20T21:43:47.691Z,75546.09
2022-09-20T21:46:17.656Z,75564.59
2022-09-20T21:48:45.057Z,75556.38
2022-09-20T21:51:13.821Z,75578.97
2022-09-20T21:53:40.869Z,75583.09
2022-09-20T21:56:08.788Z,75597.47
2022-09-20T21:58:36.153Z,75589.25
2022-09-20T22:01:04.238Z,75605.69
2022-09-20T22:03:35.191Z,75628.28
2022-09-20T22:06:08.797Z,75650.91
2022-09-20T22:08:37.125Z,75655.00
2022-09-20T22:11:04.228Z,75677.63
2022-09-20T22:13:31.627Z,75683.78
2022-09-20T22:16:05.389Z,75683.78
2022-09-20T22:18:33.559Z,75704.34
2022-09-20T22:21:04.553Z,75702.28
2022-09-20T22:23:31.649Z,75708.44
2022-09-20T22:26:00.079Z,75718.72
2022-09-20T22:28:29.645Z,75712.56
2022-09-20T22:30:56.879Z,75708.44
2022-09-20T22:33:24.011Z,75706.38
2022-09-20T22:35:51.404Z,75712.56
2022-09-20T22:38:18.759Z,75718.72
2022-09-20T22:40:52.764Z,75729.00
2022-09-20T22:43:20.045Z,75729.00
2022-09-20T22:45:47.097Z,75739.28
2022-09-20T22:48:14.134Z,75735.16
2022-09-20T22:50:41.147Z,75745.44
2022-09-20T22:53:08.282Z,75749.56
2022-09-20T22:55:35.316Z,75753.66
2022-09-20T22:58:02.552Z,75757.78
2022-09-20T23:00:29.714Z,75763.94
2022-09-20T23:02:57.974Z,75766.00
2022-09-20T23:05:25.672Z,75786.53
2022-09-20T23:07:52.911Z,75790.66
2022-09-20T23:10:20.014Z,75796.81
2022-09-20T23:12:49.693Z,75811.22
2022-09-20T23:15:17.243Z,75813.25
2022-09-20T23:17:44.386Z,75817.38
2022-09-20T23:20:11.644Z,75839.97
2022-09-20T23:22:38.689Z,75848.19
2022-09-20T23:25:06.061Z,75860.53
2022-09-20T23:27:33.253Z,75864.63
2022-09-20T23:30:00.305Z,75864.63
2022-09-20T23:32:27.335Z,75864.63
2022-09-20T23:34:54.328Z,75876.97
2022-09-20T23:37:21.405Z,75872.84
2022-09-20T23:39:48.441Z,75876.97
2022-09-20T23:42:15.524Z,75879.03
2022-09-20T23:44:42.574Z,75891.34
2022-09-20T23:47:09.653Z,75885.19
2022-09-20T23:49:37.336Z,75893.41
2022-09-20T23:52:04.892Z,75897.53
2022-09-20T23:54:32.813Z,75903.69
2022-09-20T23:57:00.271Z,75911.91
2022-09-20T23:59:27.529Z,75909.84
